Terminal Aerodrome Forecast
Issued by NWS

Home | Current Version | Previous Version | Text Only | Print | Product List | Glossary Off
Versions: 1 2 3 4 5 6 7 8 9 10 11 12 13 14 15 16 17 18 19 20

000
FTUS43 KABR 211600 AAC
TAFATY
TAF AMD
KATY 211625Z 2116/2212 15010KT P6SM BKN011
      TEMPO 2117/2118 SCT015
     FM211800 16012KT P6SM BKN250
     FM220900 30006KT P6SM OVC250=

USA.gov is the U.S. government's official web portal to all federal, state and local government web resources and services.